Time;durP1;ratioP1;P1;durP2;ratioP2;P2;SDS_P1;SDS_P2;PMS_P1;PMS_P2;Temp;Humidity;BMP_temperature;BMP_pressure;BME280_temperature;BME280_humidity;BME280_pressure;Samples;Min_cycle;Max_cycle;Signal;HPM_P1;HPM_P2
2022/03/25 00:01:16;;;;;;;;;;;256.60;1024.00;;;;;;4935808;29;19907;-59
2022/03/25 00:03:41;;;;;;;;;;;256.60;1024.00;;;;;;4935412;29;20001;-58
2022/03/25 00:06:08;;;;;;;;;;;256.60;1024.00;;;;;;4935520;29;19914;-58
2022/03/25 00:08:34;;;;;;;;;;;256.60;1024.00;;;;;;4935696;29;19911;-59
2022/03/25 00:11:00;;;;;;;;;;;256.60;1049.60;;;;;;4935890;29;19911;-59
2022/03/25 00:13:25;;;;;;;;;;;256.40;1049.60;;;;;;4935440;29;19915;-59
2022/03/25 00:15:51;;;;;;;;;;;256.40;1049.60;;;;;;4937484;29;19911;-59
2022/03/25 00:18:16;;;;;;;;;;;256.40;1049.60;;;;;;4935534;29;19914;-58
2022/03/25 00:20:42;;;;;;;;;;;256.40;1049.60;;;;;;4935552;29;19973;-59
2022/03/25 00:23:08;;;;;;;;;;;256.40;1049.60;;;;;;4935346;29;20354;-59
2022/03/25 00:25:34;;;;;;;;;;;256.40;1049.60;;;;;;4935376;29;19975;-59
2022/03/25 00:28:00;;;;;;;;;;;256.30;1049.60;;;;;;4935507;29;20001;-59
2022/03/25 00:30:25;;;;;;;;;;;256.30;1049.60;;;;;;4935162;29;20005;-59
2022/03/25 00:32:51;;;;;;;;;;;256.20;1049.60;;;;;;4935318;29;19907;-59
2022/03/25 00:35:17;;;;;;;;;;;256.20;1075.20;;;;;;4935317;29;19914;-58
2022/03/25 00:37:43;;;;;;;;;;;256.10;1075.20;;;;;;4935235;29;19974;-58
2022/03/25 00:40:09;;;;;;;;;;;256.10;1075.20;;;;;;4935584;29;19907;-59
2022/03/25 00:42:35;;;;;;;;;;;256.10;1075.20;;;;;;4935182;29;19911;-58
2022/03/25 00:45:04;;;;;;;;;;;256.10;1075.20;;;;;;4935761;29;19914;-58
2022/03/25 00:47:29;;;;;;;;;;;231.30;1100.80;;;;;;4938893;29;19911;-59
2022/03/25 00:49:55;;;;;;;;;;;256.00;1075.20;;;;;;4955957;29;19906;-59
2022/03/25 00:52:22;;;;;;;;;;;256.10;1075.20;;;;;;4955856;29;19985;-59
2022/03/25 00:54:48;;;;;;;;;;;256.00;1075.20;;;;;;4955589;29;20364;-59
2022/03/25 00:57:13;;;;;;;;;;;256.00;1100.80;;;;;;4955844;29;19907;-59
2022/03/25 00:59:39;;;;;;;;;;;231.30;1100.80;;;;;;4955771;29;19921;-59
2022/03/25 01:02:04;;;;;;;;;;;231.30;1100.80;;;;;;4955570;29;20415;-59
2022/03/25 01:04:30;;;;;;;;;;;231.30;1100.80;;;;;;4941221;29;19953;-59
2022/03/25 01:06:56;;;;;;;;;;;231.20;1100.80;;;;;;4936406;29;19962;-59
2022/03/25 01:09:21;;;;;;;;;;;231.30;1100.80;;;;;;4936485;29;19911;-59
2022/03/25 01:11:47;;;;;;;;;;;231.20;1100.80;;;;;;4936412;29;20294;-59
2022/03/25 01:14:13;;;;;;;;;;;231.20;1100.80;;;;;;4936541;29;19918;-59
2022/03/25 01:16:39;;;;;;;;;;;231.20;1100.80;;;;;;4938714;29;20349;-59
2022/03/25 01:19:05;;;;;;;;;;;231.10;1126.40;;;;;;4947115;29;19918;-59
2022/03/25 01:21:31;;;;;;;;;;;231.10;1126.40;;;;;;4959045;29;19907;-59
2022/03/25 01:23:57;;;;;;;;;;;231.10;1126.40;;;;;;4958956;29;19918;-58
2022/03/25 01:26:23;;;;;;;;;;;231.10;1126.40;;;;;;4959339;29;20356;-59
2022/03/25 01:28:48;;;;;;;;;;;231.10;1126.40;;;;;;4958998;29;19914;-58
2022/03/25 01:31:14;;;;;;;;;;;231.00;1126.40;;;;;;4958855;29;20256;-59
2022/03/25 01:33:40;;;;;;;;;;;231.00;1126.40;;;;;;4958199;29;19906;-59
2022/03/25 01:36:06;;;;;;;;;;;231.00;1100.80;;;;;;4956556;29;19918;-59
2022/03/25 01:38:32;;;;;;;;;;;230.90;1126.40;;;;;;4958668;29;19914;-58
2022/03/25 01:40:58;;;;;;;;;;;230.90;1152.00;;;;;;4958656;29;19949;-59
2022/03/25 01:43:24;;;;;;;;;;;230.80;1152.00;;;;;;4958673;29;19956;-59
2022/03/25 01:45:50;;;;;;;;;;;230.80;1152.00;;;;;;4958690;29;19962;-58
2022/03/25 01:48:19;;;;;;;;;;;230.80;1152.00;;;;;;4958756;29;19910;-59
2022/03/25 01:50:46;;;;;;;;;;;230.70;1152.00;;;;;;4958488;29;20424;-59
2022/03/25 01:53:13;;;;;;;;;;;230.70;1152.00;;;;;;4956961;29;20001;-58
2022/03/25 01:55:43;;;;;;;;;;;230.70;1152.00;;;;;;4958431;29;19913;-59
2022/03/25 01:58:12;;;;;;;;;;;230.60;1152.00;;;;;;4958589;29;19961;-59
2022/03/25 02:00:37;;;;;;;;;;;230.70;1152.00;;;;;;4958664;29;19914;-58
2022/03/25 02:03:04;;;;;;;;;;;230.60;1177.60;;;;;;4958713;29;20288;-59
2022/03/25 02:05:30;;;;;;;;;;;230.60;1177.60;;;;;;4958292;29;19930;-59
2022/03/25 02:07:55;;;;;;;;;;;230.60;1177.60;;;;;;4958156;29;19906;-59
2022/03/25 02:10:21;;;;;;;;;;;230.60;1177.60;;;;;;4948301;29;20379;-59
2022/03/25 02:12:47;;;;;;;;;;;230.60;1177.60;;;;;;4939151;29;19911;-59
2022/03/25 02:15:12;;;;;;;;;;;230.60;1177.60;;;;;;4939221;29;19974;-59
2022/03/25 02:17:38;;;;;;;;;;;230.60;1203.20;;;;;;4939128;29;19907;-59
2022/03/25 02:20:08;;;;;;;;;;;230.60;1203.20;;;;;;4939195;29;19938;-59
2022/03/25 02:22:37;;;;;;;;;;;230.50;1203.20;;;;;;4938723;29;20009;-59
2022/03/25 02:25:06;;;;;;;;;;;230.60;1203.20;;;;;;4939082;29;19910;-59
2022/03/25 02:27:32;;;;;;;;;;;230.60;1203.20;;;;;;4937379;29;20357;-59
2022/03/25 02:29:58;;;;;;;;;;;230.50;1203.20;;;;;;4938783;29;20241;-59
2022/03/25 02:32:23;;;;;;;;;;;230.50;1228.80;;;;;;4938796;29;19913;-59
2022/03/25 02:34:49;;;;;;;;;;;230.50;1228.80;;;;;;4938526;29;20242;-59
2022/03/25 02:37:14;;;;;;;;;;;230.50;1228.80;;;;;;4938291;29;20245;-60
2022/03/25 02:39:40;;;;;;;;;;;230.50;1228.80;;;;;;4938446;29;20284;-59
2022/03/25 02:42:05;;;;;;;;;;;230.50;1228.80;;;;;;4938604;29;19907;-59
2022/03/25 02:44:31;;;;;;;;;;;230.50;1228.80;;;;;;4954623;29;20005;-59
2022/03/25 02:46:56;;;;;;;;;;;230.50;1228.80;;;;;;4957470;29;19913;-59
2022/03/25 02:49:22;;;;;;;;;;;230.50;1228.80;;;;;;4957512;29;19964;-59
2022/03/25 02:51:48;;;;;;;;;;;230.50;1254.40;;;;;;4957452;29;19985;-59
2022/03/25 02:54:13;;;;;;;;;;;230.50;1254.40;;;;;;4957313;29;19907;-59
2022/03/25 02:56:39;;;;;;;;;;;230.40;1254.40;;;;;;4957378;29;19981;-59
2022/03/25 02:59:04;;;;;;;;;;;230.40;1254.40;;;;;;4944892;29;19925;-59
2022/03/25 03:01:30;;;;;;;;;;;230.40;1254.40;;;;;;4938306;29;19914;-59
2022/03/25 03:03:55;;;;;;;;;;;230.40;1280.00;;;;;;4938169;29;19946;-59
2022/03/25 03:06:21;;;;;;;;;;;230.40;1280.00;;;;;;4936120;29;20268;-59
2022/03/25 03:08:46;;;;;;;;;;;230.50;1280.00;;;;;;4938026;29;19938;-59
2022/03/25 03:11:13;;;;;;;;;;;230.50;1280.00;;;;;;4938128;29;19910;-59
2022/03/25 03:13:39;;;;;;;;;;;230.50;1280.00;;;;;;4937874;29;20284;-59
2022/03/25 03:16:04;;;;;;;;;;;230.40;1280.00;;;;;;4943068;29;19911;-59
2022/03/25 03:18:30;;;;;;;;;;;230.40;1280.00;;;;;;4956977;29;19937;-59
2022/03/25 03:20:56;;;;;;;;;;;230.40;1305.60;;;;;;4956906;29;19906;-59
2022/03/25 03:23:21;;;;;;;;;;;230.50;1280.00;;;;;;4956852;29;19946;-59
2022/03/25 03:25:47;;;;;;;;;;;230.40;1305.60;;;;;;4957123;29;20353;-59
2022/03/25 03:28:13;;;;;;;;;;;230.40;1305.60;;;;;;4956737;29;19972;-59
2022/03/25 03:30:38;;;;;;;;;;;230.40;1305.60;;;;;;4956667;29;19914;-59
2022/03/25 03:33:05;;;;;;;;;;;230.40;1305.60;;;;;;4955058;29;19910;-59
2022/03/25 03:35:32;;;;;;;;;;;230.40;1305.60;;;;;;4956604;29;20046;-59
2022/03/25 03:37:57;;;;;;;;;;;205.70;1331.20;;;;;;4955848;28;20353;-59
2022/03/25 03:40:23;;;;;;;;;;;205.70;1331.20;;;;;;4956406;29;19917;-59
2022/03/25 03:42:49;;;;;;;;;;;205.70;1331.20;;;;;;4956438;29;19996;-59
2022/03/25 03:45:15;;;;;;;;;;;205.70;1331.20;;;;;;4956696;29;19907;-59
2022/03/25 03:47:41;;;;;;;;;;;205.60;1331.20;;;;;;4956488;29;20271;-59
2022/03/25 03:50:09;;;;;;;;;;;205.60;1382.40;;;;;;4955055;29;19965;-59
2022/03/25 03:52:35;;;;;;;;;;;205.50;1408.00;;;;;;4956334;29;19961;-59
2022/03/25 03:55:02;;;;;;;;;;;205.40;1433.60;;;;;;4956280;29;19906;-58
2022/03/25 03:57:27;;;;;;;;;;;205.40;1459.20;;;;;;4956135;29;19961;-59
2022/03/25 03:59:53;;;;;;;;;;;205.40;1459.20;;;;;;4956513;29;19914;-59
2022/03/25 04:02:19;;;;;;;;;;;205.40;1459.20;;;;;;4956457;29;19910;-59
2022/03/25 04:04:44;;;;;;;;;;;205.40;1433.60;;;;;;4956453;29;19949;-59
2022/03/25 04:07:10;;;;;;;;;;;205.40;1433.60;;;;;;4938920;29;19915;-58
2022/03/25 04:09:35;;;;;;;;;;;205.30;1433.60;;;;;;4935643;29;19913;-58
2022/03/25 04:12:01;;;;;;;;;;;205.30;1433.60;;;;;;4918543;29;19907;-59
2022/03/25 04:14:27;;;;;;;;;;;205.20;1408.00;;;;;;4935869;29;19919;-58
2022/03/25 04:16:52;;;;;;;;;;;205.40;1408.00;;;;;;4935477;29;20258;-58
2022/03/25 04:19:18;;;;;;;;;;;205.20;1433.60;;;;;;4935367;29;20348;-58
2022/03/25 04:21:44;;;;;;;;;;;205.20;1433.60;;;;;;4935767;29;19954;-58
2022/03/25 04:24:09;;;;;;;;;;;205.20;1408.00;;;;;;4934414;29;19918;-58
2022/03/25 04:26:35;;;;;;;;;;;205.20;1408.00;;;;;;4934956;29;19942;-58
2022/03/25 04:29:00;;;;;;;;;;;205.20;1408.00;;;;;;4950065;29;19975;-59
2022/03/25 04:31:26;;;;;;;;;;;205.20;1408.00;;;;;;4935820;29;19907;-59
2022/03/25 04:33:51;;;;;;;;;;;205.10;1433.60;;;;;;4935445;29;19929;-58
2022/03/25 04:36:17;;;;;;;;;;;205.10;1433.60;;;;;;4935469;29;19946;-58
2022/03/25 04:38:43;;;;;;;;;;;205.10;1433.60;;;;;;4935525;29;19919;-58
2022/03/25 04:41:10;;;;;;;;;;;205.00;1433.60;;;;;;4936110;29;19915;-58
2022/03/25 04:43:36;;;;;;;;;;;205.20;1459.20;;;;;;4935582;29;19907;-59
2022/03/25 04:46:02;;;;;;;;;;;204.90;1433.60;;;;;;4935184;29;19919;-59
2022/03/25 04:48:27;;;;;;;;;;;204.80;1459.20;;;;;;4935235;29;19907;-59
2022/03/25 04:50:53;;;;;;;;;;;180.10;1459.20;;;;;;4938630;29;19914;-59
2022/03/25 04:53:19;;;;;;;;;;;180.00;1459.20;;;;;;4939426;29;19914;-59
2022/03/25 04:55:44;;;;;;;;;;;180.00;1459.20;;;;;;4939916;29;19917;-58
2022/03/25 04:58:10;;;;;;;;;;;180.00;1459.20;;;;;;4939156;29;19910;-58
2022/03/25 05:00:37;;;;;;;;;;;180.10;1459.20;;;;;;4939142;29;19907;-59
2022/03/25 05:03:03;;;;;;;;;;;180.10;1459.20;;;;;;4938798;29;20375;-59
2022/03/25 05:05:28;;;;;;;;;;;180.10;1459.20;;;;;;4938921;29;19971;-59
2022/03/25 05:07:54;;;;;;;;;;;180.10;1459.20;;;;;;4938890;29;19907;-58
2022/03/25 05:10:20;;;;;;;;;;;180.10;1459.20;;;;;;4938769;29;19918;-58
2022/03/25 05:12:45;;;;;;;;;;;204.80;1459.20;;;;;;4938207;29;19918;-58
2022/03/25 05:15:11;;;;;;;;;;;204.80;1459.20;;;;;;4939037;29;19911;-59
2022/03/25 05:17:46;;;;;;;;;;;204.80;1484.80;;;;;;4938869;29;19907;-59
2022/03/25 05:20:12;;;;;;;;;;;204.90;1484.80;;;;;;4937207;29;20309;-58
2022/03/25 05:22:38;;;;;;;;;;;204.90;1484.80;;;;;;4938036;29;19915;-58
2022/03/25 05:25:08;;;;;;;;;;;205.00;1484.80;;;;;;4935874;29;20080;-59
2022/03/25 05:27:45;;;;;;;;;;;205.00;1484.80;;;;;;4938568;29;19911;-59
2022/03/25 05:30:11;;;;;;;;;;;204.90;1484.80;;;;;;4937613;29;19911;-58
2022/03/25 05:32:39;;;;;;;;;;;204.90;1484.80;;;;;;4938511;29;19914;-58
2022/03/25 05:35:06;;;;;;;;;;;204.90;1484.80;;;;;;4936094;29;19989;-58
2022/03/25 05:37:32;;;;;;;;;;;204.80;1510.40;;;;;;4938635;29;19907;-59
2022/03/25 05:39:57;;;;;;;;;;;180.10;1510.40;;;;;;4938227;29;20273;-59
2022/03/25 05:42:23;;;;;;;;;;;180.10;1510.40;;;;;;4938439;29;19917;-58
2022/03/25 05:44:48;;;;;;;;;;;204.80;1536.00;;;;;;4937386;29;20365;-58
2022/03/25 05:47:14;;;;;;;;;;;205.00;1510.40;;;;;;4938030;29;20412;-57
2022/03/25 05:49:39;;;;;;;;;;;205.20;1510.40;;;;;;4938207;29;20337;-57
2022/03/25 05:52:05;;;;;;;;;;;205.20;1484.80;;;;;;4939548;29;20250;-57
2022/03/25 05:54:31;;;;;;;;;;;205.20;1510.40;;;;;;4939434;29;19953;-58
2022/03/25 05:56:56;;;;;;;;;;;205.40;1484.80;;;;;;4939387;29;20400;-58
2022/03/25 05:59:22;;;;;;;;;;;205.50;1510.40;;;;;;4939506;29;19915;-58
2022/03/25 06:01:47;;;;;;;;;;;205.60;1510.40;;;;;;4936643;29;20389;-57
2022/03/25 06:04:13;;;;;;;;;;;205.70;1510.40;;;;;;4938548;29;20277;-57
2022/03/25 06:06:38;;;;;;;;;;;230.40;1510.40;;;;;;4937130;29;19953;-57
2022/03/25 06:09:04;;;;;;;;;;;230.60;1484.80;;;;;;4937773;29;19906;-57
2022/03/25 06:11:30;;;;;;;;;;;230.80;1459.20;;;;;;4936980;29;19907;-57
2022/03/25 06:13:55;;;;;;;;;;;231.00;1408.00;;;;;;4937413;29;20383;-58
2022/03/25 06:16:21;;;;;;;;;;;231.20;1382.40;;;;;;4937424;29;19914;-58
2022/03/25 06:18:47;;;;;;;;;;;256.00;1356.80;;;;;;4937206;29;20010;-58
2022/03/25 06:21:12;;;;;;;;;;;256.20;1331.20;;;;;;4938179;29;20066;-58
2022/03/25 06:23:38;;;;;;;;;;;256.40;1305.60;;;;;;4938301;29;20326;-58
2022/03/25 06:26:05;;;;;;;;;;;256.70;1280.00;;;;;;4938778;29;19911;-58
2022/03/25 06:28:31;;;;;;;;;;;256.90;1254.40;;;;;;4938719;29;19913;-58
2022/03/25 06:30:56;;;;;;;;;;;281.70;1280.00;;;;;;4939091;29;19906;-58
2022/03/25 06:33:22;;;;;;;;;;;281.90;1254.40;;;;;;4938325;29;19906;-60
2022/03/25 06:35:48;;;;;;;;;;;282.10;1228.80;;;;;;4937843;29;19911;-58
2022/03/25 06:38:14;;;;;;;;;;;282.30;1228.80;;;;;;4938847;29;19914;-58
2022/03/25 06:40:39;;;;;;;;;;;282.40;1203.20;;;;;;4938936;29;19907;-58
2022/03/25 06:43:05;;;;;;;;;;;307.30;1228.80;;;;;;4937595;29;19914;-59
2022/03/25 06:45:31;;;;;;;;;;;307.50;1203.20;;;;;;4937141;29;19910;-58
2022/03/25 06:47:57;;;;;;;;;;;307.60;1203.20;;;;;;4937745;29;19907;-59
2022/03/25 06:50:24;;;;;;;;;;;307.80;1177.60;;;;;;4937870;29;20276;-59
2022/03/25 06:52:49;;;;;;;;;;;332.80;1177.60;;;;;;4937068;29;20324;-59
2022/03/25 06:55:16;;;;;;;;;;;358.40;1126.40;;;;;;4956616;29;19936;-59
2022/03/25 06:57:41;;;;;;;;;;;384.60;998.40;;;;;;4956600;29;19965;-58
2022/03/25 07:00:12;;;;;;;;;;;435.80;921.60;;;;;;4956657;29;19917;-58
2022/03/25 07:02:38;;;;;;;;;;;486.70;819.20;;;;;;4947951;29;20321;-59
2022/03/25 07:05:04;;;;;;;;;;;537.90;742.40;;;;;;4936805;29;19962;-59
2022/03/25 07:07:31;;;;;;;;;;;564.00;716.80;;;;;;4937229;29;19907;-59
2022/03/25 07:09:57;;;;;;;;;;;615.00;614.40;;;;;;4936141;29;20356;-58
2022/03/25 07:12:22;;;;;;;;;;;640.90;563.20;;;;;;4936780;29;19913;-60
2022/03/25 07:14:48;;;;;;;;;;;691.20;537.60;;;;;;4936588;29;19956;-59
2022/03/25 07:17:13;;;;;;;;;;;716.80;512.00;;;;;;4937221;29;19907;-59
2022/03/25 07:19:40;;;;;;;;;;;742.50;486.40;;;;;;4936752;29;19915;-58
2022/03/25 07:22:05;;;;;;;;;;;742.90;460.80;;;;;;4936474;29;19911;-58
2022/03/25 07:24:31;;;;;;;;;;;768.30;435.20;;;;;;4938518;29;19922;-58
2022/03/25 07:26:56;;;;;;;;;;;768.80;409.60;;;;;;4955913;29;19906;-59
2022/03/25 07:29:22;;;;;;;;;;;794.30;409.60;;;;;;4955898;29;19917;-59
2022/03/25 07:31:47;;;;;;;;;;;794.40;384.00;;;;;;4956633;29;20001;-59
2022/03/25 07:34:13;;;;;;;;;;;794.40;409.60;;;;;;4956205;29;20249;-60
2022/03/25 07:36:39;;;;;;;;;;;794.10;409.60;;;;;;4955292;29;19910;-59
2022/03/25 07:39:05;;;;;;;;;;;768.10;435.20;;;;;;4938712;29;19918;-59
2022/03/25 07:41:30;;;;;;;;;;;742.40;460.80;;;;;;4950444;29;19918;-57
2022/03/25 07:43:56;;;;;;;;;;;691.90;486.40;;;;;;4942629;29;19911;-58
2022/03/25 07:46:33;;;;;;;;;;;666.40;512.00;;;;;;5091119;28;19913;-59
2022/03/25 07:48:58;;;;;;;;;;;640.50;537.60;;;;;;5091332;28;20003;-59
2022/03/25 07:51:24;;;;;;;;;;;615.30;563.20;;;;;;5090866;28;19962;-59
2022/03/25 07:53:49;;;;;;;;;;;614.50;588.80;;;;;;5094147;28;19919;-59
2022/03/25 07:56:15;;;;;;;;;;;589.00;640.00;;;;;;5091044;28;19917;-59
2022/03/25 07:58:40;;;;;;;;;;;588.80;640.00;;;;;;5085154;27;19924;-59
2022/03/25 08:01:06;;;;;;;;;;;588.80;640.00;;;;;;5089793;28;20426;-58
2022/03/25 08:03:31;;;;;;;;;;;588.90;640.00;;;;;;5086728;28;19908;-58
2022/03/25 08:05:57;;;;;;;;;;;588.90;665.60;;;;;;5084353;28;19917;-57
2022/03/25 08:08:23;;;;;;;;;;;589.30;640.00;;;;;;5086359;28;20022;-59
2022/03/25 08:10:54;;;;;;;;;;;614.40;588.80;;;;;;5088790;28;19909;-59
2022/03/25 08:13:20;;;;;;;;;;;615.10;563.20;;;;;;5089410;28;19909;-57
2022/03/25 08:15:45;;;;;;;;;;;665.70;537.60;;;;;;5089456;28;19917;-57
2022/03/25 08:18:11;;;;;;;;;;;691.20;486.40;;;;;;5089448;28;19909;-59
2022/03/25 08:20:41;;;;;;;;;;;691.50;460.80;;;;;;5088896;28;19912;-58
2022/03/25 08:23:12;;;;;;;;;;;691.70;460.80;;;;;;5077983;28;19916;-56
2022/03/25 08:28:22;;;;;;;;;;;793.70;409.60;;;;;;5080080;28;19935;-57
2022/03/25 08:30:48;;;;;;;;;;;819.80;358.40;;;;;;5089553;28;20365;-58
2022/03/25 08:33:14;;;;;;;;;;;845.60;358.40;;;;;;5088165;28;19915;-57
2022/03/25 08:35:40;;;;;;;;;;;871.30;307.20;;;;;;5089138;28;20361;-56
2022/03/25 08:38:07;;;;;;;;;;;922.10;281.60;;;;;;5089657;28;19908;-55
2022/03/25 08:40:34;;;;;;;;;;;922.30;281.60;;;;;;5089713;28;19959;-56
2022/03/25 08:43:04;;;;;;;;;;;947.60;281.60;;;;;;5089850;28;19987;-56
2022/03/25 08:45:30;;;;;;;;;;;972.80;307.20;;;;;;5090380;28;19924;-55
2022/03/25 08:47:55;;;;;;;;;;;973.20;307.20;;;;;;5089633;28;19919;-56
2022/03/25 08:50:22;;;;;;;;;;;973.60;307.20;;;;;;5088660;28;19955;-55
2022/03/25 08:52:48;;;;;;;;;;;998.70;332.80;;;;;;5089572;28;19916;-56
2022/03/25 08:55:14;;;;;;;;;;;998.40;332.80;;;;;;5088918;28;19916;-57
2022/03/25 08:57:40;;;;;;;;;;;999.10;332.80;;;;;;5077076;28;19912;-56
2022/03/25 09:00:10;;;;;;;;;;;1024.60;332.80;;;;;;5060226;28;19908;-55
2022/03/25 09:02:37;;;;;;;;;;;1049.60;358.40;;;;;;5056177;28;19909;-56
2022/03/25 09:05:03;;;;;;;;;;;998.70;332.80;;;;;;5055319;28;19916;-55
2022/03/25 09:07:29;;;;;;;;;;;1049.70;358.40;;;;;;5055563;28;19913;-55
2022/03/25 09:09:55;;;;;;;;;;;1050.30;358.40;;;;;;5055509;28;20439;-55
2022/03/25 09:12:20;;;;;;;;;;;1050.30;358.40;;;;;;5055741;28;19912;-57
2022/03/25 09:14:46;;;;;;;;;;;1075.40;358.40;;;;;;5059194;28;20278;-56
2022/03/25 09:17:11;;;;;;;;;;;1050.00;358.40;;;;;;5075219;28;19962;-56
2022/03/25 09:19:37;;;;;;;;;;;1075.60;358.40;;;;;;5075407;28;19916;-57
2022/03/25 09:22:03;;;;;;;;;;;1100.90;384.00;;;;;;5075417;28;20342;-57
2022/03/25 09:24:28;;;;;;;;;;;1076.10;358.40;;;;;;5075596;28;19909;-56
2022/03/25 09:26:54;;;;;;;;;;;1101.30;384.00;;;;;;5073980;28;19908;-56
2022/03/25 09:29:19;;;;;;;;;;;1101.00;384.00;;;;;;5074753;28;19958;-56
2022/03/25 09:31:45;;;;;;;;;;;1101.30;384.00;;;;;;5075488;28;20273;-56
2022/03/25 09:36:55;;;;;;;;;;;1126.90;409.60;;;;;;5075367;28;19958;-56
2022/03/25 09:39:21;;;;;;;;;;;1127.00;409.60;;;;;;5074964;28;20301;-56
2022/03/25 09:41:47;;;;;;;;;;;1127.30;409.60;;;;;;5074842;28;20376;-56
2022/03/25 09:44:14;;;;;;;;;;;1127.30;409.60;;;;;;5074525;28;19940;-56
2022/03/25 09:46:42;;;;;;;;;;;1101.30;384.00;;;;;;5071098;28;19913;-56
2022/03/25 09:49:08;;;;;;;;;;;1127.30;409.60;;;;;;5074218;28;19956;-56
2022/03/25 09:51:35;;;;;;;;;;;1127.20;409.60;;;;;;5074624;28;19920;-57
2022/03/25 09:54:00;;;;;;;;;;;1152.10;409.60;;;;;;5075271;28;19913;-58
2022/03/25 09:56:27;;;;;;;;;;;1152.60;409.60;;;;;;5074342;28;20416;-58
2022/03/25 09:58:55;;;;;;;;;;;1177.70;409.60;;;;;;5069215;28;19917;-58
2022/03/25 10:01:21;;;;;;;;;;;1152.90;409.60;;;;;;5054184;28;20009;-57
2022/03/25 10:03:46;;;;;;;;;;;1152.40;409.60;;;;;;5054319;28;19940;-56
2022/03/25 10:06:12;;;;;;;;;;;1178.10;409.60;;;;;;5054233;28;19913;-58
2022/03/25 10:08:38;;;;;;;;;;;1178.40;409.60;;;;;;5053684;28;19915;-57
2022/03/25 10:11:22;;;;;;;;;;;1152.90;409.60;;;;;;5054565;28;19995;-56
2022/03/25 10:13:48;;;;;;;;;;;1178.40;409.60;;;;;;5054744;28;19915;-58
2022/03/25 10:16:30;;;;;;;;;;;1178.50;409.60;;;;;;5069830;28;20304;-58
2022/03/25 10:18:57;;;;;;;;;;;1177.90;409.60;;;;;;5054144;28;20023;-58
2022/03/25 10:21:23;;;;;;;;;;;1178.50;409.60;;;;;;5062324;28;20065;-58
2022/03/25 10:23:48;;;;;;;;;;;1178.40;409.60;;;;;;5074636;28;19915;-57
2022/03/25 10:26:14;;;;;;;;;;;1177.70;409.60;;;;;;5073928;28;20296;-58
2022/03/25 10:28:40;;;;;;;;;;;1101.50;384.00;;;;;;5074274;28;19912;-59
2022/03/25 10:31:07;;;;;;;;;;;1101.10;384.00;;;;;;5073813;28;20372;-56
2022/03/25 10:33:34;;;;;;;;;;;1101.20;384.00;;;;;;5073344;28;19912;-59
2022/03/25 10:36:01;;;;;;;;;;;1101.50;384.00;;;;;;5074323;28;19982;-59
2022/03/25 10:38:38;;;;;;;;;;;1126.80;409.60;;;;;;5079353;28;19998;-59
2022/03/25 10:41:03;;;;;;;;;;;1152.90;409.60;;;;;;5066684;28;19935;-58
2022/03/25 10:43:29;;;;;;;;;;;1203.20;435.20;;;;;;5074178;28;20369;-58
2022/03/25 10:45:55;;;;;;;;;;;1178.10;409.60;;;;;;5065940;28;19927;-58
2022/03/25 10:48:21;;;;;;;;;;;1152.50;409.60;;;;;;5054308;28;19913;-58
2022/03/25 10:51:13;;;;;;;;;;;1152.80;409.60;;;;;;5054625;28;19931;-58
2022/03/25 10:53:40;;;;;;;;;;;1178.00;409.60;;;;;;5053744;28;19909;-57
2022/03/25 10:56:07;;;;;;;;;;;1203.30;435.20;;;;;;5053969;28;19917;-56
2022/03/25 10:58:34;;;;;;;;;;;1203.60;435.20;;;;;;5066163;28;20377;-56
2022/03/25 11:01:00;;;;;;;;;;;1203.60;435.20;;;;;;5072559;28;19913;-56
2022/03/25 11:03:25;;;;;;;;;;;1203.60;435.20;;;;;;5074239;28;19912;-56
2022/03/25 11:05:52;;;;;;;;;;;1203.70;435.20;;;;;;5074148;28;19908;-56
2022/03/25 11:08:17;;;;;;;;;;;1203.80;435.20;;;;;;5074315;28;19917;-56
2022/03/25 11:10:43;;;;;;;;;;;1177.90;409.60;;;;;;5074033;28;19936;-56
2022/03/25 11:13:09;;;;;;;;;;;1152.90;409.60;;;;;;5073796;28;19940;-58
2022/03/25 11:15:35;;;;;;;;;;;1127.30;409.60;;;;;;5076324;28;19970;-55
2022/03/25 11:18:01;;;;;;;;;;;1127.00;409.60;;;;;;5073717;28;19913;-56
2022/03/25 11:20:27;;;;;;;;;;;1127.30;409.60;;;;;;5073107;28;20251;-57
2022/03/25 11:23:00;;;;;;;;;;;1177.90;409.60;;;;;;5073531;28;19908;-56
2022/03/25 11:25:27;;;;;;;;;;;1178.00;409.60;;;;;;5072697;28;20361;-56
2022/03/25 11:28:01;;;;;;;;;;;1203.30;435.20;;;;;;5072918;28;20274;-58
2022/03/25 11:30:30;;;;;;;;;;;1178.50;409.60;;;;;;5072740;28;19951;-56
2022/03/25 11:32:56;;;;;;;;;;;1177.90;409.60;;;;;;5070935;28;19977;-57
2022/03/25 11:35:22;;;;;;;;;;;1152.50;409.60;;;;;;5071496;28;20350;-57
2022/03/25 11:37:47;;;;;;;;;;;1152.10;409.60;;;;;;5072306;28;20403;-56
2022/03/25 11:40:14;;;;;;;;;;;1152.00;409.60;;;;;;5072599;28;19915;-57
2022/03/25 11:42:41;;;;;;;;;;;1101.60;384.00;;;;;;5073242;28;19912;-59
2022/03/25 11:45:35;;;;;;;;;;;1126.70;409.60;;;;;;5071883;28;20377;-56
2022/03/25 11:48:04;;;;;;;;;;;1126.90;409.60;;;;;;5069512;28;19946;-57
2022/03/25 11:50:33;;;;;;;;;;;1152.30;409.60;;;;;;5073392;28;19908;-57
2022/03/25 11:53:19;;;;;;;;;;;1152.50;409.60;;;;;;5073256;28;19912;-57
2022/03/25 11:55:52;;;;;;;;;;;1126.50;409.60;;;;;;5071377;28;19943;-56
2022/03/25 11:58:19;;;;;;;;;;;1126.50;409.60;;;;;;5070349;28;19916;-56
2022/03/25 12:00:48;;;;;;;;;;;1101.50;384.00;;;;;;5072210;28;19982;-56
2022/03/25 12:03:14;;;;;;;;;;;1101.60;384.00;;;;;;5069737;28;19908;-58
2022/03/25 12:05:55;;;;;;;;;;;1126.60;409.60;;;;;;5072021;28;19936;-58
2022/03/25 12:08:21;;;;;;;;;;;1101.30;384.00;;;;;;5070672;28;19912;-57
2022/03/25 12:10:47;;;;;;;;;;;1101.40;384.00;;;;;;5071696;28;19919;-57
2022/03/25 12:13:13;;;;;;;;;;;1049.90;358.40;;;;;;5078242;28;19940;-56
2022/03/25 12:15:39;;;;;;;;;;;1075.50;358.40;;;;;;5089159;28;19963;-58
2022/03/25 12:18:24;;;;;;;;;;;1101.00;384.00;;;;;;5092349;28;19915;-58
2022/03/25 12:20:49;;;;;;;;;;;1101.00;384.00;;;;;;5073201;28;19935;-56
2022/03/25 12:23:15;;;;;;;;;;;1126.70;409.60;;;;;;5072389;28;19930;-57
2022/03/25 12:25:44;;;;;;;;;;;1126.90;409.60;;;;;;5072837;28;19919;-58
2022/03/25 12:28:10;;;;;;;;;;;1126.50;409.60;;;;;;5069607;28;19943;-57
2022/03/25 12:30:36;;;;;;;;;;;1100.80;384.00;;;;;;5071740;28;20322;-57
2022/03/25 12:33:08;;;;;;;;;;;1101.50;384.00;;;;;;5075300;28;19919;-58
2022/03/25 12:35:36;;;;;;;;;;;1101.20;384.00;;;;;;5075493;28;19916;-57
2022/03/25 12:38:04;;;;;;;;;;;1101.10;384.00;;;;;;5075683;28;19935;-56
2022/03/25 12:40:31;;;;;;;;;;;1076.00;358.40;;;;;;5076329;28;19919;-55
2022/03/25 12:43:02;;;;;;;;;;;1101.30;384.00;;;;;;5071410;28;20001;-58
2022/03/25 12:45:43;;;;;;;;;;;1101.50;384.00;;;;;;5074931;28;19924;-58
2022/03/25 12:48:11;;;;;;;;;;;1126.60;409.60;;;;;;5074041;28;20003;-59
2022/03/25 12:50:38;;;;;;;;;;;1101.30;384.00;;;;;;5075831;28;19995;-59
2022/03/25 12:53:04;;;;;;;;;;;1100.90;384.00;;;;;;5075552;28;20364;-57
2022/03/25 12:55:32;;;;;;;;;;;1101.60;384.00;;;;;;5075830;28;20419;-58
2022/03/25 12:58:01;;;;;;;;;;;1126.40;409.60;;;;;;5076526;28;19909;-59
2022/03/25 13:00:31;;;;;;;;;;;1101.10;384.00;;;;;;5076375;28;19999;-58
2022/03/25 13:23:42;;;;;;;;;;;1075.60;358.40;;;;;;5219386;22;19974;-74
2022/03/25 13:26:09;;;;;;;;;;;1075.20;358.40;;;;;;5078599;28;19912;-75
2022/03/25 13:28:36;;;;;;;;;;;1049.70;358.40;;;;;;5077641;28;19946;-74
2022/03/25 13:31:05;;;;;;;;;;;1050.00;358.40;;;;;;5078866;28;19995;-74
2022/03/25 13:33:50;;;;;;;;;;;999.30;332.80;;;;;;5057455;28;20384;-75
2022/03/25 13:36:23;;;;;;;;;;;998.40;332.80;;;;;;5074910;28;20345;-73
2022/03/25 13:38:51;;;;;;;;;;;947.20;281.60;;;;;;5087035;28;19920;-76
2022/03/25 13:41:25;;;;;;;;;;;921.80;281.60;;;;;;5088802;28;20399;-73
2022/03/25 13:43:53;;;;;;;;;;;921.90;281.60;;;;;;5095665;28;20298;-73
2022/03/25 13:46:23;;;;;;;;;;;871.20;307.20;;;;;;5094878;28;19912;-73
2022/03/25 13:48:53;;;;;;;;;;;870.60;307.20;;;;;;5095548;28;19908;-81
2022/03/25 13:51:25;;;;;;;;;;;870.50;384.00;;;;;;5094712;28;19952;-85
2022/03/25 13:54:02;;;;;;;;;;;845.60;358.40;;;;;;5098563;28;19959;-81
